עמוד ראשי
METAR-TAF:

METAR-TAF

שדות תעופה :

Andahuaylas, פרו

קו רוחב: 13-43S, קו אורך: 073-21W, גובה: 3444מטר

תצפית מזג אוויר נוכחית

הדו"ח נערך לפני 9 שעות ו 4דקות, בשעה 19:00 UTC
רוח 6קשר מכיוון מערב/צפון-מערב
טמפרטורת 18 צלסיוס
לחות 37%
לחץ 1036 hPa
ראות 10 קילומטר או יותר
עננים פזורים בגובה 1200רגל

METAR: SPHY 241900Z 30006KT 9999 SCT012 18/03 Q1036 RMK BIRD HAZARD RWY03/21 PP000

זמן: 23:04 (04:04 UTC)

תחזית

הדו"ח נערך לפני 11 שעות ו 4דקות, בשעה 17:00 UTC
תחזית בתוקף מ 24 ב 18 UTC עד 25 ב 18 UTC
רוח 12קשר מכיוון צפון/צפון-מזרח
ראות 10 קילומטר או יותר
עננים פזורים בגובה 1500רגל

TAF: SPHY 241700Z 2418/2518 02012KT 9999 SCT015 TX17/2419Z TNM07/2511Z

תצפיות ותחזיות מזג אוויר לגבי יותר מ- 4,000 שדות תעופה ברחבי העולם. דוחות METAR ו- TAF.

התחנות הזמינות מסומנות בנקודות צהובות ואדומות על גבי המפה.

העבר את העכבר לנקודה הצבעונית על מנת לראות את שם התחנה.

לאחר מכן, לחץ כדי לראות את תוכן ואת תחזיות מזג האוויר.

כדי לשנות את המפה: לחץ על הכפתורים הירוקים עם הפלוס השחור כדי להתקרב; על הכפתור הירוק עם המקף כדי להתרחק; או בחיצים הירוקים למפות סמוכות.


METAR-TAF: